Airfield :
LOGIN :

Register | Disclaimer

   EN    FR    IT 

 










Legend :    VFR   Marginal VFR   IFR   Intensive IFR   Very Intensive IFR
Visi :
Ceiling :
>= 8 km
>= 3000ft
5 to 8 km
1000 to 3000 ft
1500m to 5 km
500 to 1000 ft
800 to 1500m
200 to 500 ft
< 800m
< 200 ft
Symbols :   Thunderstorms  Fog  Heavy snow  Heavy precipitations  Wind > 20 kt
SIGMETs :     Misc.  Thunderstorms  Icing  Turbulence  Mountain Waves  Volcanic Ashes






- Airport Elevation : 12 ft
- IATA code : NCE


LFMN - Nice

CURRENT METAR :
  • 102330Z 33011KT CAVOK 08/M02 Q1021 NOSIG

EXPIRED METARs :
  • 102300Z 33009KT CAVOK 08/M02 Q1021 NOSIG
  • 102230Z 33009KT CAVOK 09/M02 Q1021 NOSIG
  • 102200Z 33012KT CAVOK 09/M01 Q1020 NOSIG
  • 102130Z 33010KT CAVOK 09/M01 Q1020 NOSIG
  • 102100Z 34008KT CAVOK 09/M00 Q1020 NOSIG

TAF TAF LFMN
Valid from the 10 at 21:00 until the 12 at 03:00 UTC


102000Z 1021/1203 34010KT CAVOK
BECMG 1113/1115 22010KT
BECMG 1117/1119 34010KT
PROB30
TEMPO 1116/1121 RA BKN080
ATIS : +33 4 93 17 21 16



MET'MAP, your aeronautical weather chart ! - Copyright ORBIFLY December 2007 - Disclaimer

ORBIFLY MET'MAP TEAM :

Programming & Development : Alexandra Zaïnal
Concept & original design : Baudouin d'Aumeries
Assistance for programming : Marc-Olivier Méhu
Technical & hardware support : Manuel Goepfert

Contact : metmap@orbifly.com




SOURCES & CREDITS :

   NOAA